createdAt,value
2022-09-15T00:00:01.956Z,14.73
2022-09-15T00:02:29.605Z,14.72
2022-09-15T00:04:57.335Z,14.69
2022-09-15T00:07:24.888Z,14.63
2022-09-15T00:09:52.732Z,14.61
2022-09-15T00:12:20.312Z,14.58
2022-09-15T00:14:47.852Z,14.55
2022-09-15T00:17:15.400Z,14.52
2022-09-15T00:19:42.960Z,14.48
2022-09-15T00:22:10.883Z,14.42
2022-09-15T00:24:38.562Z,14.38
2022-09-15T00:27:06.125Z,14.32
2022-09-15T00:29:33.649Z,14.27
2022-09-15T00:32:01.144Z,14.23
2022-09-15T00:34:29.102Z,14.18
2022-09-15T00:36:57.071Z,14.14
2022-09-15T00:39:24.580Z,14.10
2022-09-15T00:41:52.151Z,14.07
2022-09-15T00:44:19.687Z,14.02
2022-09-15T00:47:03.946Z,13.98
2022-09-15T00:49:35.393Z,13.94
2022-09-15T00:52:03.090Z,13.91
2022-09-15T00:54:30.582Z,13.87
2022-09-15T00:57:02.596Z,13.83
2022-09-15T00:59:30.153Z,13.80
2022-09-15T01:01:57.779Z,13.78
2022-09-15T01:04:25.377Z,13.74
2022-09-15T01:06:52.888Z,13.72
2022-09-15T01:09:20.722Z,13.68
2022-09-15T01:11:48.272Z,13.65
2022-09-15T01:14:15.761Z,13.63
2022-09-15T01:16:43.354Z,13.62
2022-09-15T01:19:11.405Z,13.59
2022-09-15T01:21:39.783Z,13.56
2022-09-15T01:24:07.283Z,13.53
2022-09-15T01:26:34.891Z,13.52
2022-09-15T01:29:02.401Z,13.48
2022-09-15T01:31:29.988Z,13.44
2022-09-15T01:33:56.842Z,13.39
2022-09-15T01:36:24.340Z,13.35
2022-09-15T01:38:52.007Z,13.31
2022-09-15T01:41:19.676Z,13.27
2022-09-15T01:43:47.233Z,13.24
2022-09-15T01:46:15.225Z,13.20
2022-09-15T01:48:43.084Z,13.17
2022-09-15T01:51:10.628Z,13.16
2022-09-15T01:53:38.142Z,13.16
2022-09-15T01:56:06.161Z,13.16
2022-09-15T01:58:34.050Z,13.18
2022-09-15T02:01:03.632Z,13.18
2022-09-15T02:03:32.259Z,13.17
2022-09-15T02:06:02.905Z,13.17
2022-09-15T02:08:30.410Z,13.16
2022-09-15T02:10:58.364Z,13.15
2022-09-15T02:13:26.023Z,13.14
2022-09-15T02:15:53.517Z,13.15
2022-09-15T02:18:21.063Z,13.12
2022-09-15T02:20:49.428Z,13.13
2022-09-15T02:23:17.774Z,13.13
2022-09-15T02:25:51.754Z,13.13
2022-09-15T02:28:19.280Z,13.12
2022-09-15T02:30:46.811Z,13.14
2022-09-15T02:33:14.563Z,13.16
2022-09-15T02:35:42.462Z,13.18
2022-09-15T02:38:10.533Z,13.21
2022-09-15T02:40:38.106Z,13.21
2022-09-15T02:43:06.474Z,13.23
2022-09-15T02:45:34.320Z,13.22
2022-09-15T02:48:02.257Z,13.22
2022-09-15T02:50:31.052Z,13.23
2022-09-15T02:52:58.597Z,13.25
2022-09-15T02:55:27.375Z,13.27
2022-09-15T02:57:54.906Z,13.27
2022-09-15T03:00:22.869Z,13.28
2022-09-15T03:02:51.755Z,13.27
2022-09-15T03:05:19.285Z,13.26
2022-09-15T03:07:47.355Z,13.26
2022-09-15T03:10:14.919Z,13.25
2022-09-15T03:12:42.438Z,13.25
2022-09-15T03:15:10.133Z,13.25
2022-09-15T03:17:37.698Z,13.25
2022-09-15T03:20:05.482Z,13.24
2022-09-15T03:22:33.020Z,13.23
2022-09-15T03:25:01.480Z,13.24
2022-09-15T03:27:29.212Z,13.26
2022-09-15T03:29:57.168Z,13.28
2022-09-15T03:32:24.885Z,13.31
2022-09-15T03:34:57.682Z,13.33
2022-09-15T03:37:26.310Z,13.34
2022-09-15T03:39:54.075Z,13.35
2022-09-15T03:42:21.635Z,13.36
2022-09-15T03:44:49.217Z,13.40
2022-09-15T03:47:16.738Z,13.43
2022-09-15T03:49:44.663Z,13.50
2022-09-15T03:52:13.944Z,13.56
2022-09-15T03:54:42.015Z,13.61
2022-09-15T03:57:09.532Z,13.66
2022-09-15T03:59:37.102Z,13.72
2022-09-15T04:02:05.122Z,13.78
2022-09-15T04:04:32.879Z,13.87
2022-09-15T04:07:00.512Z,13.91
2022-09-15T04:09:28.209Z,13.96
2022-09-15T04:11:55.749Z,14.01
2022-09-15T04:14:23.666Z,14.05
2022-09-15T04:16:51.201Z,14.07
2022-09-15T04:19:18.719Z,14.09
2022-09-15T04:21:47.549Z,14.11
2022-09-15T04:24:15.082Z,14.12
2022-09-15T04:26:42.970Z,14.12
2022-09-15T04:29:10.699Z,14.11
2022-09-15T04:31:38.294Z,14.09
2022-09-15T04:34:05.849Z,14.07
2022-09-15T04:36:33.835Z,14.07
2022-09-15T04:39:01.750Z,14.06
2022-09-15T04:41:29.308Z,14.06
2022-09-15T04:43:56.881Z,14.07
2022-09-15T04:46:24.527Z,14.08
2022-09-15T04:48:52.074Z,14.08
2022-09-15T04:51:20.126Z,14.09
2022-09-15T04:53:47.689Z,14.10
2022-09-15T04:56:15.209Z,14.10
2022-09-15T04:58:43.219Z,14.12
2022-09-15T05:01:10.819Z,14.13
2022-09-15T05:03:38.814Z,14.15
2022-09-15T05:06:06.473Z,14.17
2022-09-15T05:08:34.063Z,14.19
2022-09-15T05:11:01.713Z,14.20
2022-09-15T05:13:29.335Z,14.21
2022-09-15T05:15:57.312Z,14.21
2022-09-15T05:18:25.330Z,14.22
2022-09-15T05:20:53.216Z,14.22
2022-09-15T05:23:20.762Z,14.23
2022-09-15T05:25:48.331Z,14.26
2022-09-15T05:28:16.305Z,14.26
2022-09-15T05:30:44.677Z,14.27
2022-09-15T05:33:12.332Z,14.26
2022-09-15T05:35:40.097Z,14.28
2022-09-15T05:38:07.659Z,14.28
2022-09-15T05:40:35.616Z,14.29
2022-09-15T05:43:03.413Z,14.31
2022-09-15T05:45:31.052Z,14.34
2022-09-15T05:47:58.587Z,14.35
2022-09-15T05:50:26.145Z,14.37
2022-09-15T05:52:54.591Z,14.43
2022-09-15T05:55:22.531Z,14.44
2022-09-15T05:57:50.094Z,14.48
2022-09-15T06:00:19.066Z,14.51
2022-09-15T06:02:46.634Z,14.54
2022-09-15T06:05:14.957Z,14.57
2022-09-15T06:07:42.741Z,14.62
2022-09-15T06:10:10.453Z,14.64
2022-09-15T06:12:38.068Z,14.65
2022-09-15T06:15:05.624Z,14.71
2022-09-15T06:17:33.566Z,14.75
2022-09-15T06:20:01.691Z,14.79
2022-09-15T06:22:29.236Z,14.83
2022-09-15T06:24:56.821Z,14.86
2022-09-15T06:27:24.774Z,14.90
2022-09-15T06:29:52.551Z,14.93
2022-09-15T06:32:20.249Z,14.96
2022-09-15T06:34:47.840Z,15.00
2022-09-15T06:37:15.692Z,15.06
2022-09-15T06:39:43.400Z,15.10
2022-09-15T06:42:13.777Z,15.12
2022-09-15T06:44:41.613Z,15.14
2022-09-15T06:47:09.149Z,15.16
2022-09-15T06:49:37.057Z,15.18
2022-09-15T06:52:05.236Z,15.18
2022-09-15T06:54:33.163Z,15.21
2022-09-15T06:57:00.958Z,15.24
2022-09-15T06:59:28.522Z,15.29
2022-09-15T07:01:56.126Z,15.34
2022-09-15T07:04:23.764Z,15.38
2022-09-15T07:06:52.115Z,15.43
2022-09-15T07:09:19.722Z,15.45
2022-09-15T07:11:47.381Z,15.46
2022-09-15T07:14:14.960Z,15.46
2022-09-15T07:16:42.606Z,15.47
2022-09-15T07:19:10.679Z,15.46
2022-09-15T07:21:38.241Z,15.47
2022-09-15T07:24:07.519Z,15.49
2022-09-15T07:26:35.294Z,15.53
2022-09-15T07:29:02.861Z,15.59
2022-09-15T07:31:31.212Z,15.65
2022-09-15T07:33:59.268Z,15.73
2022-09-15T07:36:26.864Z,15.80
2022-09-15T07:38:54.425Z,15.87
2022-09-15T07:41:22.011Z,15.93
2022-09-15T07:43:49.586Z,15.98
2022-09-15T07:46:17.429Z,16.00
2022-09-15T07:48:45.087Z,16.01
2022-09-15T07:51:12.713Z,16.00
2022-09-15T07:53:40.564Z,16.00
2022-09-15T07:56:08.382Z,16.03
2022-09-15T07:58:35.962Z,16.07
2022-09-15T08:01:04.152Z,16.11
2022-09-15T08:03:31.818Z,16.15
2022-09-15T08:05:59.398Z,16.18
2022-09-15T08:08:27.368Z,16.22
2022-09-15T08:10:55.357Z,16.28
2022-09-15T08:13:23.252Z,16.36
2022-09-15T08:15:51.189Z,16.45
2022-09-15T08:18:18.863Z,16.60
2022-09-15T08:20:46.803Z,16.76
2022-09-15T08:23:14.544Z,16.95
2022-09-15T08:25:42.774Z,17.13
2022-09-15T08:28:10.429Z,17.26
2022-09-15T08:30:38.976Z,17.34
2022-09-15T08:33:06.904Z,17.39
2022-09-15T08:35:36.942Z,17.41
2022-09-15T08:38:04.784Z,17.46
2022-09-15T08:40:32.431Z,17.47
2022-09-15T08:43:00.092Z,17.46
2022-09-15T08:45:28.026Z,17.41
2022-09-15T08:47:58.698Z,17.39
2022-09-15T08:50:27.454Z,17.40
2022-09-15T08:52:55.718Z,17.44
2022-09-15T08:55:24.032Z,17.46
2022-09-15T08:57:51.943Z,17.44
2022-09-15T09:00:20.417Z,17.39
2022-09-15T09:02:48.202Z,17.37
2022-09-15T09:05:15.821Z,17.40
2022-09-15T09:07:43.436Z,17.40
2022-09-15T09:10:11.386Z,17.40
2022-09-15T09:12:39.152Z,17.47
2022-09-15T09:15:06.778Z,17.68
2022-09-15T09:17:34.405Z,17.83
2022-09-15T09:20:01.997Z,17.94
2022-09-15T09:22:30.838Z,18.04
2022-09-15T09:24:58.822Z,18.20
2022-09-15T09:27:26.404Z,18.36
2022-09-15T09:29:53.982Z,18.45
2022-09-15T09:32:21.927Z,18.54
2022-09-15T09:34:50.913Z,18.57
2022-09-15T09:37:18.674Z,18.61
2022-09-15T09:39:47.254Z,18.63
2022-09-15T09:42:14.872Z,18.66
2022-09-15T09:44:42.455Z,18.63
2022-09-15T09:47:10.105Z,18.59
2022-09-15T09:49:37.721Z,18.57
2022-09-15T09:52:05.560Z,18.57
2022-09-15T09:54:33.255Z,18.65
2022-09-15T09:57:00.932Z,18.73
2022-09-15T09:59:28.523Z,18.71
2022-09-15T10:01:56.560Z,18.68
2022-09-15T10:04:24.272Z,18.72
2022-09-15T10:06:52.152Z,18.90
2022-09-15T10:09:19.857Z,19.13
2022-09-15T10:11:47.557Z,19.50
2022-09-15T10:14:15.327Z,19.96
2022-09-15T10:16:43.014Z,20.25
2022-09-15T10:19:10.637Z,20.30
2022-09-15T10:21:38.187Z,20.31
2022-09-15T10:24:06.182Z,20.27
2022-09-15T10:26:33.938Z,20.23
2022-09-15T10:29:01.796Z,20.09
2022-09-15T10:31:29.713Z,20.01
2022-09-15T10:33:57.429Z,19.98
2022-09-15T10:36:25.398Z,19.89
2022-09-15T10:38:53.129Z,19.90
2022-09-15T10:41:20.755Z,19.99
2022-09-15T10:43:48.374Z,20.07
2022-09-15T10:46:16.074Z,20.02
2022-09-15T10:48:44.048Z,19.99
2022-09-15T10:51:12.386Z,19.94
2022-09-15T10:53:40.033Z,19.78
2022-09-15T10:56:07.613Z,19.60
2022-09-15T10:58:35.234Z,19.41
2022-09-15T11:01:03.299Z,19.22
2022-09-15T11:03:31.336Z,19.04
2022-09-15T11:05:58.959Z,18.85
2022-09-15T11:08:26.628Z,18.67
2022-09-15T11:10:54.262Z,18.46
2022-09-15T11:13:22.284Z,18.28
2022-09-15T11:15:50.612Z,18.12
2022-09-15T11:18:18.229Z,17.96
2022-09-15T11:20:45.852Z,17.80
2022-09-15T11:23:13.479Z,17.65
2022-09-15T11:25:41.242Z,17.43
2022-09-15T11:28:08.998Z,17.12
2022-09-15T11:30:36.716Z,16.85
2022-09-15T11:33:04.284Z,16.67
2022-09-15T11:35:31.898Z,16.54
2022-09-15T11:37:59.918Z,16.44
2022-09-15T11:40:28.647Z,16.42
2022-09-15T11:42:56.319Z,16.45
2022-09-15T11:45:23.963Z,16.52
2022-09-15T11:47:51.612Z,16.65
2022-09-15T11:50:19.609Z,16.73
2022-09-15T11:52:47.432Z,16.82
2022-09-15T11:55:15.814Z,16.95
2022-09-15T11:57:43.512Z,17.10
2022-09-15T12:00:11.238Z,17.27
2022-09-15T12:02:39.106Z,17.40
2022-09-15T12:05:06.905Z,17.50
2022-09-15T12:07:34.595Z,17.70
2022-09-15T12:10:02.176Z,17.84
2022-09-15T12:12:30.866Z,17.96
2022-09-15T12:14:59.585Z,18.04
2022-09-15T12:17:28.047Z,18.05
2022-09-15T12:19:55.626Z,18.18
2022-09-15T12:22:23.777Z,18.24
2022-09-15T12:24:51.401Z,18.26
2022-09-15T12:27:19.352Z,18.30
2022-09-15T12:29:47.246Z,18.47
2022-09-15T12:32:14.821Z,18.71
2022-09-15T12:34:42.430Z,18.92
2022-09-15T12:37:10.158Z,19.12
2022-09-15T12:39:38.397Z,19.53
2022-09-15T12:42:06.270Z,20.00
2022-09-15T12:44:34.022Z,20.43
2022-09-15T12:47:01.628Z,20.52
2022-09-15T12:49:29.193Z,20.53
2022-09-15T12:51:56.872Z,20.48
2022-09-15T12:54:24.872Z,20.49
2022-09-15T12:56:52.493Z,20.47
2022-09-15T12:59:20.348Z,20.39
2022-09-15T13:01:49.169Z,20.25
2022-09-15T13:04:17.287Z,20.10
2022-09-15T13:06:44.958Z,19.92
2022-09-15T13:09:13.190Z,19.72
2022-09-15T13:11:40.854Z,19.52
2022-09-15T13:14:08.540Z,19.40
2022-09-15T13:16:37.518Z,19.29
2022-09-15T13:19:05.482Z,19.20
2022-09-15T13:21:33.135Z,19.13
2022-09-15T13:24:01.024Z,19.14
2022-09-15T13:26:28.611Z,19.10
2022-09-15T13:28:56.857Z,19.21
2022-09-15T13:31:24.841Z,19.41
2022-09-15T13:39:28.403Z,19.89
2022-09-15T13:41:56.204Z,20.02
2022-09-15T13:44:23.902Z,20.00
2022-09-15T13:46:51.540Z,19.99
2022-09-15T13:49:19.118Z,19.93
2022-09-15T13:51:51.442Z,19.84
2022-09-15T13:54:21.115Z,19.80
2022-09-15T13:56:49.244Z,19.79
2022-09-15T13:59:17.142Z,19.86
2022-09-15T14:01:45.537Z,19.88
2022-09-15T14:04:13.545Z,19.84
2022-09-15T14:06:42.960Z,19.74
2022-09-15T14:09:10.655Z,19.63
2022-09-15T14:11:38.388Z,19.49
2022-09-15T14:14:05.954Z,19.38
2022-09-15T14:16:35.516Z,19.25
2022-09-15T14:19:04.070Z,19.13
2022-09-15T14:21:32.107Z,19.03
2022-09-15T14:23:59.822Z,18.99
2022-09-15T14:26:28.928Z,18.98
2022-09-15T14:28:57.179Z,18.99
2022-09-15T14:31:24.928Z,18.94
2022-09-15T14:33:52.730Z,18.88
2022-09-15T14:36:20.441Z,18.80
2022-09-15T14:38:48.308Z,18.73
2022-09-15T14:41:18.054Z,18.69
2022-09-15T14:43:45.947Z,18.62
2022-09-15T14:46:13.794Z,18.50
2022-09-15T14:48:41.590Z,18.39
2022-09-15T14:51:09.449Z,18.30
2022-09-15T14:53:38.338Z,18.26
2022-09-15T14:56:08.339Z,18.24
2022-09-15T14:58:36.198Z,18.26
2022-09-15T15:01:04.005Z,18.23
2022-09-15T15:03:31.698Z,18.25
2022-09-15T15:06:02.842Z,18.27
2022-09-15T15:08:47.746Z,18.26
2022-09-15T15:11:15.320Z,18.26
2022-09-15T15:13:43.562Z,18.27
2022-09-15T15:16:11.691Z,18.27
2022-09-15T15:18:39.685Z,18.26
2022-09-15T15:21:07.415Z,18.20
2022-09-15T15:23:35.150Z,18.18
2022-09-15T15:26:02.825Z,18.13
2022-09-15T15:28:30.875Z,18.10
2022-09-15T15:30:58.635Z,18.06
2022-09-15T15:33:27.649Z,18.05
2022-09-15T15:35:55.309Z,18.07
2022-09-15T15:38:25.553Z,18.07
2022-09-15T15:40:53.602Z,18.06
2022-09-15T15:43:21.190Z,18.04
2022-09-15T15:45:49.439Z,18.08
2022-09-15T15:48:17.167Z,18.52
2022-09-15T15:50:44.869Z,18.66
2022-09-15T15:53:12.864Z,18.66
2022-09-15T15:55:40.782Z,18.56
2022-09-15T15:58:08.541Z,18.41
2022-09-15T16:00:36.783Z,18.31
2022-09-15T16:03:05.202Z,18.20
2022-09-15T16:05:33.222Z,18.08
2022-09-15T16:08:00.853Z,17.98
2022-09-15T16:10:28.523Z,17.88
2022-09-15T16:12:56.231Z,17.77
2022-09-15T16:15:23.895Z,17.68
2022-09-15T16:17:52.143Z,17.60
2022-09-15T16:20:20.839Z,17.50
2022-09-15T16:22:48.497Z,17.40
2022-09-15T16:25:16.092Z,17.22
2022-09-15T16:27:43.765Z,17.04
2022-09-15T16:30:12.955Z,16.95
2022-09-15T16:32:40.853Z,16.87
2022-09-15T16:35:08.624Z,16.79
2022-09-15T16:37:36.274Z,16.72
2022-09-15T16:40:03.987Z,16.63
2022-09-15T16:42:31.832Z,16.55
2022-09-15T16:44:59.661Z,16.48
2022-09-15T16:47:27.377Z,16.41
2022-09-15T16:49:55.061Z,16.36
2022-09-15T16:52:22.752Z,16.31
2022-09-15T16:54:50.896Z,16.25
2022-09-15T16:57:19.650Z,16.21
2022-09-15T16:59:47.555Z,16.15
2022-09-15T17:02:15.217Z,16.08
2022-09-15T17:04:42.864Z,16.04
2022-09-15T17:07:10.832Z,16.00
2022-09-15T17:09:38.611Z,15.96
2022-09-15T17:12:06.447Z,15.91
2022-09-15T17:14:34.235Z,15.87
2022-09-15T17:17:01.958Z,15.83
2022-09-15T17:19:29.906Z,15.77
2022-09-15T17:21:57.891Z,15.72
2022-09-15T17:24:25.921Z,15.67
2022-09-15T17:26:53.597Z,15.62
2022-09-15T17:29:21.191Z,15.55
2022-09-15T17:31:49.037Z,15.50
2022-09-15T17:34:16.735Z,15.42
2022-09-15T17:36:45.676Z,15.34
2022-09-15T17:39:13.393Z,15.26
2022-09-15T17:41:41.071Z,15.21
2022-09-15T17:44:08.774Z,15.18
2022-09-15T17:46:36.561Z,15.16
2022-09-15T17:49:04.500Z,15.16
2022-09-15T17:51:32.258Z,15.16
2022-09-15T17:54:00.126Z,15.14
2022-09-15T17:56:28.212Z,15.10
2022-09-15T17:58:55.966Z,15.06
2022-09-15T18:01:23.897Z,15.00
2022-09-15T18:03:51.777Z,14.95
2022-09-15T18:06:19.874Z,14.91
2022-09-15T18:08:48.031Z,14.88
2022-09-15T18:11:15.720Z,14.85
2022-09-15T18:13:43.679Z,14.82
2022-09-15T18:16:11.417Z,14.79
2022-09-15T18:18:40.608Z,14.76
2022-09-15T18:21:08.660Z,14.74
2022-09-15T18:23:37.635Z,14.75
2022-09-15T18:26:05.357Z,14.75
2022-09-15T18:28:33.266Z,14.75
2022-09-15T18:31:00.895Z,14.76
2022-09-15T18:33:28.925Z,14.76
2022-09-15T18:35:56.705Z,14.77
2022-09-15T18:38:24.471Z,14.78
2022-09-15T18:40:53.525Z,14.77
2022-09-15T18:43:21.251Z,14.80
2022-09-15T18:45:49.353Z,14.79
2022-09-15T18:48:16.963Z,14.81
2022-09-15T18:50:45.494Z,14.83
2022-09-15T18:53:13.104Z,14.84
2022-09-15T18:55:40.713Z,14.85
2022-09-15T18:58:08.730Z,14.85
2022-09-15T19:00:36.344Z,14.86
2022-09-15T19:03:04.172Z,14.87
2022-09-15T19:05:31.814Z,14.87
2022-09-15T19:07:59.478Z,14.87
2022-09-15T19:10:27.894Z,14.87
2022-09-15T19:12:55.465Z,14.87
2022-09-15T19:15:24.342Z,14.87
2022-09-15T19:17:51.996Z,14.89
2022-09-15T19:20:19.653Z,14.91
2022-09-15T19:22:47.977Z,14.92
2022-09-15T19:25:15.570Z,14.94
2022-09-15T19:27:43.465Z,14.92
2022-09-15T19:30:11.263Z,14.86
2022-09-15T19:32:38.843Z,14.81
2022-09-15T19:35:06.851Z,14.77
2022-09-15T19:37:34.505Z,14.71
2022-09-15T19:40:03.380Z,14.66
2022-09-15T19:42:31.331Z,14.60
2022-09-15T19:44:58.926Z,14.56
2022-09-15T19:47:26.980Z,14.52
2022-09-15T19:49:55.300Z,14.46
2022-09-15T19:52:22.883Z,14.41
2022-09-15T19:54:50.844Z,14.38
2022-09-15T19:57:18.500Z,14.35
2022-09-15T19:59:46.464Z,14.33
2022-09-15T20:02:14.096Z,14.32
2022-09-15T20:04:42.093Z,14.32
2022-09-15T20:07:09.657Z,14.32
2022-09-15T20:09:37.225Z,14.34
2022-09-15T20:12:05.254Z,14.34
2022-09-15T20:14:32.822Z,14.34
2022-09-15T20:17:01.900Z,14.35
2022-09-15T20:19:29.666Z,14.36
2022-09-15T20:21:57.259Z,14.37
2022-09-15T20:24:24.913Z,14.37
2022-09-15T20:26:52.848Z,14.38
2022-09-15T20:29:20.652Z,14.39
2022-09-15T20:31:48.296Z,14.41
2022-09-15T20:34:16.003Z,14.40
2022-09-15T20:36:44.004Z,14.40
2022-09-15T20:39:13.196Z,14.42
2022-09-15T20:41:41.601Z,14.42
2022-09-15T20:44:10.358Z,14.42
2022-09-15T20:46:37.934Z,14.41
2022-09-15T20:49:05.994Z,14.40
2022-09-15T20:51:33.941Z,14.39
2022-09-15T20:54:01.625Z,14.39
2022-09-15T20:56:29.240Z,14.39
2022-09-15T20:58:56.828Z,14.40
2022-09-15T21:01:25.086Z,14.39
2022-09-15T21:03:53.458Z,14.38
2022-09-15T21:06:21.017Z,14.37
2022-09-15T21:08:48.626Z,14.36
2022-09-15T21:11:16.221Z,14.32
2022-09-15T21:13:44.125Z,14.26
2022-09-15T21:16:11.872Z,14.23
2022-09-15T21:18:39.561Z,14.20
2022-09-15T21:21:07.432Z,14.20
2022-09-15T21:23:35.503Z,14.21
2022-09-15T21:26:03.180Z,14.23
2022-09-15T21:28:31.035Z,14.23
2022-09-15T21:30:59.042Z,14.24
2022-09-15T21:33:26.643Z,14.24
2022-09-15T21:35:54.242Z,14.25
2022-09-15T21:38:22.151Z,14.26
2022-09-15T21:40:50.062Z,14.25
2022-09-15T21:43:18.516Z,14.26
2022-09-15T21:45:46.397Z,14.25
2022-09-15T21:48:14.915Z,14.23
2022-09-15T21:50:42.886Z,14.22
2022-09-15T21:53:10.432Z,14.22
2022-09-15T21:55:38.350Z,14.21
2022-09-15T21:58:05.869Z,14.21
2022-09-15T22:00:33.513Z,14.19
2022-09-15T22:03:01.464Z,14.19
2022-09-15T22:05:29.010Z,14.16
2022-09-15T22:08:00.474Z,14.13
2022-09-15T22:10:31.776Z,14.11
2022-09-15T22:12:59.530Z,14.09
2022-09-15T22:15:27.516Z,14.06
2022-09-15T22:17:55.111Z,14.04
2022-09-15T22:20:22.884Z,14.03
2022-09-15T22:22:50.480Z,14.01
2022-09-15T22:25:21.791Z,14.03
2022-09-15T22:27:49.965Z,14.04
2022-09-15T22:30:17.541Z,14.06
2022-09-15T22:32:45.465Z,14.06
2022-09-15T22:35:13.011Z,14.07
2022-09-15T22:37:40.565Z,14.08
2022-09-15T22:40:08.636Z,14.08
2022-09-15T22:42:36.374Z,14.08
2022-09-15T22:45:03.941Z,14.09
2022-09-15T22:47:31.540Z,14.10
2022-09-15T22:49:59.862Z,14.10
2022-09-15T22:52:27.414Z,14.08
2022-09-15T22:54:55.012Z,14.08
2022-09-15T22:57:22.566Z,14.08
2022-09-15T22:59:50.071Z,14.07
2022-09-15T23:02:17.794Z,14.05
2022-09-15T23:04:45.736Z,14.05
2022-09-15T23:07:14.514Z,14.01
2022-09-15T23:09:42.066Z,13.98
2022-09-15T23:12:10.006Z,13.95
2022-09-15T23:14:37.549Z,13.93
2022-09-15T23:17:05.471Z,13.90
2022-09-15T23:19:33.000Z,13.87
2022-09-15T23:22:00.596Z,13.83
2022-09-15T23:24:28.391Z,13.82
2022-09-15T23:26:55.909Z,13.81
2022-09-15T23:29:26.516Z,13.79
2022-09-15T23:31:54.113Z,13.77
2022-09-15T23:34:21.888Z,13.73
2022-09-15T23:36:49.425Z,13.71
2022-09-15T23:39:16.992Z,13.65
2022-09-15T23:41:44.703Z,13.59
2022-09-15T23:44:12.247Z,13.54
2022-09-15T23:46:40.139Z,13.51
2022-09-15T23:49:07.734Z,13.49
2022-09-15T23:51:35.742Z,13.49
2022-09-15T23:54:05.210Z,13.50
2022-09-15T23:56:33.916Z,13.50
2022-09-15T23:59:01.488Z,13.52
